createdAt,value
2022-12-27T00:01:12.355Z,100389.13
2022-12-27T00:03:41.355Z,100397.72
2022-12-27T00:06:16.019Z,100387.06
2022-12-27T00:08:46.603Z,100380.13
2022-12-27T00:11:17.395Z,100373.72
2022-12-27T00:13:45.657Z,100377.50
2022-12-27T00:16:16.137Z,100376.19
2022-12-27T00:18:44.462Z,100382.88
2022-12-27T00:21:14.286Z,100375.38
2022-12-27T00:23:45.602Z,100374.31
2022-12-27T00:26:17.314Z,100366.09
2022-12-27T00:28:46.754Z,100369.88
2022-12-27T00:31:15.793Z,100363.19
2022-12-27T00:33:45.619Z,100356.47
2022-12-27T00:36:16.299Z,100360.03
2022-12-27T00:38:44.836Z,100358.97
2022-12-27T00:41:14.853Z,100357.66
2022-12-27T00:43:43.261Z,100354.19
2022-12-27T00:46:11.494Z,100348.03
2022-12-27T00:48:40.031Z,100347.78
2022-12-27T00:51:09.786Z,100340.56
2022-12-27T00:53:38.238Z,100339.50
2022-12-27T00:56:08.810Z,100338.16
2022-12-27T00:58:41.013Z,100335.19
2022-12-27T01:01:10.798Z,100331.63
2022-12-27T01:03:39.057Z,100332.19
2022-12-27T01:06:08.018Z,100331.94
2022-12-27T01:08:36.402Z,100324.47
2022-12-27T01:11:05.083Z,100327.97
2022-12-27T01:13:33.098Z,100340.25
2022-12-27T01:16:03.000Z,100346.41
2022-12-27T01:18:31.141Z,100359.28
2022-12-27T01:20:59.310Z,100354.50
2022-12-27T01:23:27.853Z,100347.84
2022-12-27T01:26:01.643Z,100338.22
2022-12-27T01:28:30.134Z,100335.81
2022-12-27T01:30:58.274Z,100331.78
2022-12-27T01:33:27.772Z,100330.19
2022-12-27T01:35:55.877Z,100325.38
2022-12-27T01:38:23.915Z,100321.91
2022-12-27T01:40:51.947Z,100322.22
2022-12-27T01:43:19.474Z,100316.09
2022-12-27T01:45:49.104Z,100304.34
2022-12-27T01:48:22.716Z,100322.78
2022-12-27T01:50:55.588Z,100313.16
2022-12-27T01:53:25.840Z,100308.31
2022-12-27T01:55:57.367Z,100311.03
2022-12-27T01:58:30.273Z,100301.41
2022-12-27T02:00:59.714Z,100298.25
2022-12-27T02:03:31.479Z,100308.38
2022-12-27T02:06:03.575Z,100313.44
2022-12-27T02:08:40.718Z,100306.50
2022-12-27T02:11:10.172Z,100301.97
2022-12-27T02:13:42.208Z,100303.06
2022-12-27T02:16:15.591Z,100302.50
2022-12-27T02:18:44.174Z,100297.94
2022-12-27T02:21:51.611Z,100298.75
2022-12-27T02:24:41.470Z,100293.16
2022-12-27T02:27:27.347Z,100298.75
2022-12-27T02:30:03.091Z,100293.94
2022-12-27T02:32:35.985Z,100293.16
2022-12-27T02:35:10.713Z,100296.91
2022-12-27T02:37:42.703Z,100294.00
2022-12-27T02:40:30.780Z,100295.00
2022-12-27T02:43:16.879Z,100282.47
2022-12-27T02:46:11.288Z,100287.03
2022-12-27T02:48:56.790Z,100277.97
2022-12-27T02:51:56.065Z,100279.25
2022-12-27T02:54:50.510Z,100288.56
2022-12-27T02:57:30.778Z,100291.81
2022-12-27T03:00:25.389Z,100292.38
2022-12-27T03:03:29.390Z,100298.50
2022-12-27T03:06:37.416Z,100297.16
2022-12-27T03:09:35.545Z,100289.59
2022-12-27T03:12:28.365Z,100280.22
2022-12-27T03:15:18.519Z,100282.91
2022-12-27T03:17:53.245Z,100288.56
2022-12-27T03:20:41.412Z,100282.13
2022-12-27T03:23:28.765Z,100277.09
2022-12-27T03:25:59.357Z,100280.84
2022-12-27T03:28:48.450Z,100271.44
2022-12-27T03:31:37.866Z,100272.84
2022-12-27T03:34:24.187Z,100268.06
2022-12-27T03:37:12.429Z,100262.44
2022-12-27T03:39:48.503Z,100266.75
2022-12-27T03:42:42.592Z,100267.31
2022-12-27T03:45:11.576Z,100268.09
2022-12-27T03:47:46.546Z,100258.50
2022-12-27T03:50:22.141Z,100252.38
2022-12-27T03:52:58.235Z,100256.13
2022-12-27T03:55:33.028Z,100254.97
2022-12-27T03:58:01.406Z,100258.75
2022-12-27T04:00:30.939Z,100257.94
2022-12-27T04:02:59.235Z,100267.53
2022-12-27T04:05:27.497Z,100273.72
2022-12-27T04:08:14.626Z,100270.28
2022-12-27T04:11:00.009Z,100267.31
2022-12-27T04:13:45.612Z,100275.38
2022-12-27T04:16:31.336Z,100269.78
2022-12-27T04:19:16.774Z,100265.25
2022-12-27T04:22:02.477Z,100278.06
2022-12-27T04:24:49.479Z,100270.84
2022-12-27T04:27:35.142Z,100268.97
2022-12-27T04:30:20.728Z,100273.25
2022-12-27T04:33:06.200Z,100272.72
2022-12-27T04:35:34.403Z,100277.56
2022-12-27T04:38:02.425Z,100275.38
2022-12-27T04:40:49.308Z,100274.84
2022-12-27T04:43:34.680Z,100284.47
2022-12-27T04:46:20.252Z,100286.91
2022-12-27T04:49:05.920Z,100277.53
2022-12-27T04:51:51.203Z,100281.81
2022-12-27T04:54:38.358Z,100288.22
2022-12-27T04:57:08.093Z,100288.75
2022-12-27T04:59:53.776Z,100290.63
2022-12-27T05:02:22.332Z,100297.56
2022-12-27T05:04:50.720Z,100296.22
2022-12-27T05:07:36.313Z,100292.22
2022-12-27T05:10:24.832Z,100291.16
2022-12-27T05:13:11.891Z,100284.75
2022-12-27T05:15:40.256Z,100296.25
2022-12-27T05:18:08.441Z,100293.03
2022-12-27T05:20:36.585Z,100299.97
2022-12-27T05:23:22.205Z,100285.28
2022-12-27T05:25:50.318Z,100279.69
2022-12-27T05:28:19.836Z,100282.88
2022-12-27T05:30:47.942Z,100287.69
2022-12-27T05:33:16.078Z,100283.41
2022-12-27T05:35:44.233Z,100288.75
2022-12-27T05:38:12.502Z,100284.47
2022-12-27T05:40:40.666Z,100287.97
2022-12-27T05:43:08.800Z,100299.44
2022-12-27T05:45:38.302Z,100295.16
2022-12-27T05:48:07.170Z,100306.91
2022-12-27T05:50:35.263Z,100300.22
2022-12-27T05:53:03.470Z,100299.97
2022-12-27T05:55:31.476Z,100282.63
2022-12-27T05:57:59.551Z,100294.63
2022-12-27T06:00:27.649Z,100293.56
2022-12-27T06:02:57.363Z,100297.56
2022-12-27T06:05:25.519Z,100301.81
2022-12-27T06:07:53.535Z,100311.72
2022-12-27T06:10:21.788Z,100303.72
2022-12-27T06:12:50.034Z,100294.63
2022-12-27T06:15:18.534Z,100304.22
2022-12-27T06:17:46.765Z,100297.53
2022-12-27T06:20:16.504Z,100300.25
2022-12-27T06:22:44.885Z,100299.16
2022-12-27T06:25:14.475Z,100304.75
2022-12-27T06:27:42.818Z,100299.97
2022-12-27T06:30:12.392Z,100307.16
2022-12-27T06:32:40.921Z,100313.03
2022-12-27T06:35:11.394Z,100325.59
2022-12-27T06:37:40.998Z,100325.59
2022-12-27T06:40:10.176Z,100311.69
2022-12-27T06:42:38.318Z,100302.09
2022-12-27T06:45:09.488Z,100302.03
2022-12-27T06:47:37.677Z,100290.25
2022-12-27T06:50:06.637Z,100292.13
2022-12-27T06:52:34.897Z,100289.19
2022-12-27T06:55:04.797Z,100295.03
2022-12-27T06:57:32.936Z,100294.50
2022-12-27T07:00:01.801Z,100297.69
2022-12-27T07:02:30.099Z,100304.06
2022-12-27T07:04:58.320Z,100304.88
2022-12-27T07:07:26.396Z,100297.63
2022-12-27T07:09:54.463Z,100296.28
2022-12-27T07:12:24.067Z,100284.44
2022-12-27T07:14:52.278Z,100286.28
2022-12-27T07:17:20.342Z,100281.94
2022-12-27T07:19:48.718Z,100280.28
2022-12-27T07:22:17.005Z,100275.16
2022-12-27T07:24:45.093Z,100271.91
2022-12-27T07:27:15.668Z,100279.63
2022-12-27T07:29:45.897Z,100288.66
2022-12-27T07:32:14.181Z,100280.34
2022-12-27T07:34:42.325Z,100281.56
2022-12-27T07:37:10.552Z,100282.25
2022-12-27T07:39:38.603Z,100294.03
2022-12-27T07:42:08.909Z,100296.38
2022-12-27T07:44:37.176Z,100291.00
2022-12-27T07:47:06.908Z,100288.84
2022-12-27T07:49:35.109Z,100279.66
2022-12-27T07:52:03.443Z,100279.81
2022-12-27T07:54:31.630Z,100285.91
2022-12-27T08:23:17.037Z,100276.75
2022-12-27T08:25:49.077Z,100281.63
2022-12-27T08:28:19.533Z,100284.03
2022-12-27T08:30:48.983Z,100272.97
2022-12-27T08:33:17.900Z,100271.84
2022-12-27T08:35:53.737Z,100274.84
2022-12-27T08:38:23.875Z,100262.66
2022-12-27T08:40:52.142Z,100263.88
2022-12-27T08:43:21.140Z,100263.72
2022-12-27T08:45:49.369Z,100254.59
2022-12-27T08:48:19.546Z,100249.34
2022-12-27T08:50:47.824Z,100249.44
2022-12-27T08:53:16.006Z,100246.44
2022-12-27T08:55:45.492Z,100239.69
2022-12-27T08:58:16.461Z,100244.28
2022-12-27T09:00:44.990Z,100238.69
2022-12-27T09:03:16.304Z,100246.56
2022-12-27T09:05:44.811Z,100232.06
2022-12-27T09:08:13.345Z,100218.88
2022-12-27T09:10:41.548Z,100233.09
2022-12-27T09:13:11.236Z,100229.13
2022-12-27T09:15:39.565Z,100226.47
2022-12-27T09:18:08.039Z,100227.56
2022-12-27T09:20:36.436Z,100213.97
2022-12-27T09:23:04.572Z,100215.50
2022-12-27T09:25:32.674Z,100211.28
2022-12-27T09:28:00.862Z,100212.66
2022-12-27T09:30:30.489Z,100206.53
2022-12-27T09:32:59.809Z,100202.25
2022-12-27T09:35:28.089Z,100187.19
2022-12-27T09:37:56.264Z,100169.47
2022-12-27T09:40:24.639Z,100181.88
2022-12-27T09:43:12.524Z,100185.22
2022-12-27T09:45:52.923Z,100172.84
2022-12-27T09:48:32.952Z,100169.34
2022-12-27T09:51:06.692Z,100166.63
2022-12-27T09:53:43.814Z,100168.53
2022-12-27T09:56:14.407Z,100165.97
2022-12-27T09:58:49.089Z,100144.84
2022-12-27T10:01:32.944Z,100151.06
2022-12-27T10:04:01.775Z,100158.34
2022-12-27T10:06:54.684Z,100148.31
2022-12-27T10:09:37.026Z,100145.53
2022-12-27T10:12:17.693Z,100149.88
2022-12-27T10:15:04.636Z,100149.72
2022-12-27T10:17:52.842Z,100137.59
2022-12-27T10:20:32.185Z,100142.75
2022-12-27T10:23:06.460Z,100133.13
2022-12-27T10:25:37.118Z,100127.81
2022-12-27T10:28:23.143Z,100129.06
2022-12-27T10:30:52.253Z,100117.09
2022-12-27T10:33:27.065Z,100117.69
2022-12-27T10:35:55.595Z,100122.91
2022-12-27T10:38:24.679Z,100114.50
2022-12-27T10:40:59.053Z,100116.00
2022-12-27T10:43:33.549Z,100110.41
2022-12-27T10:46:13.851Z,100107.78
2022-12-27T10:49:20.272Z,100102.09
2022-12-27T10:51:45.537Z,100106.09
2022-12-27T10:54:15.736Z,100095.59
2022-12-27T10:56:45.048Z,100078.19
2022-12-27T10:59:17.104Z,100075.81
2022-12-27T11:01:46.789Z,100091.41
2022-12-27T11:04:20.968Z,100087.91
2022-12-27T11:06:52.435Z,100087.09
2022-12-27T11:09:32.406Z,100071.00
2022-12-27T11:12:23.937Z,100068.78
2022-12-27T11:14:57.137Z,100060.44
2022-12-27T11:17:29.686Z,100063.88
2022-12-27T11:20:04.336Z,100050.13
2022-12-27T11:22:33.357Z,100057.34
2022-12-27T11:25:02.241Z,100049.41
2022-12-27T11:27:32.053Z,100047.25
2022-12-27T11:30:01.144Z,100042.13
2022-12-27T11:32:29.341Z,100040.31
2022-12-27T11:34:59.234Z,100038.13
2022-12-27T11:37:28.486Z,100041.94
2022-12-27T11:40:12.040Z,100036.50
2022-12-27T11:42:45.671Z,100029.38
2022-12-27T11:45:22.209Z,100019.88
2022-12-27T11:47:55.766Z,100019.59
2022-12-27T11:50:41.029Z,100018.97
2022-12-27T11:53:30.311Z,100022.78
2022-12-27T11:56:14.491Z,100034.00
2022-12-27T11:59:16.591Z,100027.69
2022-12-27T12:02:18.602Z,100032.97
2022-12-27T12:05:43.343Z,100027.41
2022-12-27T12:08:36.240Z,100024.38
2022-12-27T12:11:17.089Z,100030.38
2022-12-27T12:14:11.470Z,100023.19
2022-12-27T12:17:04.216Z,100029.56
2022-12-27T12:20:05.557Z,100022.00
2022-12-27T12:22:51.750Z,100015.53
2022-12-27T12:25:48.910Z,100021.72
2022-12-27T12:28:58.584Z,100019.25
2022-12-27T12:31:40.571Z,100021.19
2022-12-27T12:34:24.701Z,100018.84
2022-12-27T12:37:06.918Z,100019.75
2022-12-27T12:39:56.267Z,100029.75
2022-12-27T12:42:32.538Z,100041.69
2022-12-27T12:45:22.167Z,100039.91
2022-12-27T12:48:43.829Z,100038.31
2022-12-27T12:51:27.643Z,100041.84
2022-12-27T12:54:09.270Z,100039.75
2022-12-27T12:57:03.243Z,100047.28
2022-12-27T12:59:50.456Z,100049.34
2022-12-27T13:02:39.136Z,100039.81
2022-12-27T13:05:17.094Z,100037.00
2022-12-27T13:07:57.378Z,100043.59
2022-12-27T13:10:46.580Z,100042.81
2022-12-27T13:13:24.106Z,100051.53
2022-12-27T13:16:08.126Z,100051.34
2022-12-27T13:18:47.782Z,100055.31
2022-12-27T13:21:31.470Z,100054.88
2022-12-27T13:24:08.602Z,100054.66
2022-12-27T13:26:46.953Z,100057.00
2022-12-27T13:29:37.140Z,100055.44
2022-12-27T13:32:14.825Z,100059.38
2022-12-27T13:34:55.252Z,100056.34
2022-12-27T13:37:39.213Z,100056.25
2022-12-27T13:40:25.178Z,100051.84
2022-12-27T13:43:17.824Z,100064.59
2022-12-27T13:46:02.153Z,100055.50
2022-12-27T13:48:52.563Z,100073.06
2022-12-27T13:51:39.639Z,100073.94
2022-12-27T13:54:30.791Z,100080.06
2022-12-27T13:57:13.235Z,100071.78
2022-12-27T14:00:11.978Z,100080.22
2022-12-27T14:03:26.469Z,100064.56
2022-12-27T14:06:39.104Z,100065.03
2022-12-27T14:09:31.047Z,100073.97
2022-12-27T14:12:15.731Z,100070.91
2022-12-27T14:14:46.392Z,100080.69
2022-12-27T14:17:30.093Z,100077.59
2022-12-27T14:20:18.747Z,100076.84
2022-12-27T14:23:06.817Z,100079.16
2022-12-27T14:26:06.155Z,100079.94
2022-12-27T14:29:02.682Z,100074.00
2022-12-27T14:32:07.817Z,100073.16
2022-12-27T14:35:07.592Z,100074.25
2022-12-27T14:38:18.462Z,100067.94
2022-12-27T14:41:10.305Z,100085.00
2022-12-27T14:44:11.696Z,100097.66
2022-12-27T14:47:08.050Z,100103.19
2022-12-27T14:50:08.878Z,100100.97
2022-12-27T14:53:22.932Z,100097.16
2022-12-27T14:56:03.707Z,100107.22
2022-12-27T14:58:46.859Z,100108.25
2022-12-27T15:01:28.664Z,100106.22
2022-12-27T15:04:29.472Z,100110.31
2022-12-27T15:07:21.335Z,100114.88
2022-12-27T15:09:59.076Z,100129.16
2022-12-27T15:12:37.612Z,100136.09
2022-12-27T15:15:32.285Z,100139.94
2022-12-27T15:18:23.972Z,100133.25
2022-12-27T15:21:22.879Z,100139.31
2022-12-27T15:23:56.028Z,100141.78
2022-12-27T15:26:35.920Z,100143.69
2022-12-27T15:29:21.044Z,100154.72
2022-12-27T15:32:00.514Z,100159.13
2022-12-27T15:34:50.372Z,100161.66
2022-12-27T15:37:53.585Z,100169.34
2022-12-27T15:40:37.371Z,100169.25
2022-12-27T15:43:16.180Z,100175.31
2022-12-27T15:46:01.662Z,100183.41
2022-12-27T15:49:03.272Z,100182.91
2022-12-27T15:51:38.074Z,100184.78
2022-12-27T15:54:28.392Z,100185.13
2022-12-27T15:57:24.661Z,100190.22
2022-12-27T15:59:55.235Z,100187.22
2022-12-27T16:02:33.436Z,100192.50
2022-12-27T16:05:13.061Z,100190.34
2022-12-27T16:07:44.879Z,100190.78
2022-12-27T16:10:35.835Z,100188.94
2022-12-27T16:13:23.004Z,100192.66
2022-12-27T16:15:55.220Z,100197.69
2022-12-27T16:19:10.779Z,100201.34
2022-12-27T16:21:44.713Z,100198.47
2022-12-27T16:24:19.446Z,100190.00
2022-12-27T16:26:57.500Z,100199.25
2022-12-27T16:29:30.213Z,100189.34
2022-12-27T16:32:17.036Z,100190.50
2022-12-27T16:34:47.247Z,100187.34
2022-12-27T16:37:24.627Z,100195.78
2022-12-27T16:40:07.485Z,100193.94
2022-12-27T16:43:14.175Z,100197.75
2022-12-27T16:45:50.847Z,100207.78
2022-12-27T16:48:28.074Z,100216.25
2022-12-27T16:51:09.887Z,100222.19
2022-12-27T16:54:07.453Z,100232.94
2022-12-27T16:56:37.500Z,100235.06
2022-12-27T16:59:48.724Z,100247.91
2022-12-27T17:02:33.752Z,100249.75
2022-12-27T17:05:02.431Z,100257.00
2022-12-27T17:07:51.451Z,100258.66
2022-12-27T17:11:01.203Z,100251.44
2022-12-27T17:13:46.396Z,100245.75
2022-12-27T17:16:21.972Z,100261.28
2022-12-27T17:18:57.974Z,100260.59
2022-12-27T17:21:30.750Z,100254.81
2022-12-27T17:24:01.977Z,100254.72
2022-12-27T17:26:53.543Z,100258.13
2022-12-27T17:29:51.226Z,100263.94
2022-12-27T17:32:31.314Z,100260.59
2022-12-27T17:35:07.491Z,100261.88
2022-12-27T17:37:45.221Z,100255.22
2022-12-27T17:40:27.688Z,100250.91
2022-12-27T17:43:25.865Z,100251.06
2022-12-27T17:46:00.004Z,100258.13
2022-12-27T17:48:30.716Z,100252.22
2022-12-27T17:51:03.536Z,100263.66
2022-12-27T17:53:49.713Z,100271.59
2022-12-27T17:56:37.834Z,100275.44
2022-12-27T17:59:10.128Z,100280.06
2022-12-27T18:01:45.396Z,100270.25
2022-12-27T18:04:22.173Z,100275.31
2022-12-27T18:06:55.812Z,100282.19
2022-12-27T18:09:44.707Z,100276.75
2022-12-27T18:12:18.895Z,100277.25
2022-12-27T18:14:55.581Z,100279.97
2022-12-27T18:17:29.360Z,100284.88
2022-12-27T18:19:58.040Z,100284.72
2022-12-27T18:22:28.875Z,100289.63
2022-12-27T18:24:57.205Z,100311.03
2022-12-27T18:27:26.992Z,100303.94
2022-12-27T18:30:32.728Z,100313.03
2022-12-27T18:33:11.850Z,100309.66
2022-12-27T18:35:40.428Z,100311.97
2022-12-27T18:38:10.371Z,100305.59
2022-12-27T18:40:38.615Z,100313.22
2022-12-27T18:43:16.737Z,100311.75
2022-12-27T18:45:44.991Z,100312.34
2022-12-27T18:48:13.916Z,100311.66
2022-12-27T18:51:10.668Z,100309.97
2022-12-27T18:53:55.688Z,100309.09
2022-12-27T18:56:51.132Z,100317.91
2022-12-27T18:59:25.879Z,100317.81
2022-12-27T19:01:55.318Z,100324.53
2022-12-27T19:04:26.913Z,100317.41
2022-12-27T19:06:59.134Z,100314.78
2022-12-27T19:09:32.508Z,100314.34
2022-12-27T19:12:04.659Z,100314.78
2022-12-27T19:14:38.972Z,100316.94
2022-12-27T19:17:11.279Z,100316.16
2022-12-27T19:19:40.004Z,100316.25
2022-12-27T19:22:30.501Z,100324.41
2022-12-27T19:25:02.091Z,100327.03
2022-12-27T19:27:30.178Z,100327.16
2022-12-27T19:29:58.222Z,100327.28
2022-12-27T19:32:33.467Z,100340.78
2022-12-27T19:35:04.301Z,100334.53
2022-12-27T19:37:35.929Z,100342.47
2022-12-27T19:40:07.256Z,100339.03
2022-12-27T19:42:36.857Z,100337.22
2022-12-27T19:45:05.188Z,100341.09
2022-12-27T19:47:34.984Z,100340.16
2022-12-27T19:50:03.241Z,100339.28
2022-12-27T19:52:31.476Z,100338.03
2022-12-27T19:55:03.675Z,100339.50
2022-12-27T19:57:33.253Z,100333.94
2022-12-27T20:00:05.520Z,100326.91
2022-12-27T20:02:37.570Z,100336.88
2022-12-27T20:05:09.908Z,100341.22
2022-12-27T20:07:39.377Z,100343.56
2022-12-27T20:10:08.338Z,100346.75
2022-12-27T20:12:37.911Z,100353.97
2022-12-27T20:15:07.192Z,100363.84
2022-12-27T20:17:41.102Z,100367.81
2022-12-27T20:20:13.555Z,100366.31
2022-12-27T20:22:41.807Z,100371.41
2022-12-27T20:25:11.043Z,100370.47
2022-12-27T20:27:40.664Z,100376.38
2022-12-27T20:30:10.493Z,100381.53
2022-12-27T20:32:38.917Z,100380.63
2022-12-27T20:35:08.219Z,100382.44
2022-12-27T20:37:36.368Z,100388.78
2022-12-27T20:40:05.298Z,100393.06
2022-12-27T20:42:33.388Z,100405.06
2022-12-27T20:45:03.054Z,100402.34
2022-12-27T20:47:31.269Z,100404.50
2022-12-27T20:49:59.536Z,100410.81
2022-12-27T20:52:31.128Z,100417.59
2022-12-27T20:55:00.201Z,100417.81
2022-12-27T20:57:28.278Z,100417.22
2022-12-27T20:59:56.753Z,100421.50
2022-12-27T21:02:26.728Z,100421.50
2022-12-27T21:04:55.253Z,100412.13
2022-12-27T21:07:23.495Z,100419.47
2022-12-27T21:09:51.758Z,100414.63
2022-12-27T21:12:20.680Z,100420.41
2022-12-27T21:14:50.071Z,100416.63
2022-12-27T21:17:19.145Z,100415.56
2022-12-27T21:19:50.764Z,100410.03
2022-12-27T21:22:18.967Z,100411.00
2022-12-27T21:24:47.243Z,100413.31
2022-12-27T21:27:15.443Z,100411.44
2022-12-27T21:29:43.832Z,100405.84
2022-12-27T21:32:12.153Z,100407.00
2022-12-27T21:34:41.373Z,100413.88
2022-12-27T21:37:13.482Z,100412.72
2022-12-27T21:39:41.791Z,100417.72
2022-12-27T21:42:11.022Z,100419.28
2022-12-27T21:44:39.346Z,100421.34
2022-12-27T21:47:07.915Z,100428.38
2022-12-27T21:49:40.407Z,100424.84
2022-12-27T21:52:08.687Z,100425.66
2022-12-27T21:54:38.240Z,100422.28
2022-12-27T21:57:06.487Z,100431.34
2022-12-27T21:59:34.874Z,100425.50
2022-12-27T22:02:03.203Z,100429.34
2022-12-27T22:04:31.483Z,100424.50
2022-12-27T22:06:59.695Z,100431.53
2022-12-27T22:09:27.833Z,100428.47
2022-12-27T22:11:57.394Z,100423.72
2022-12-27T22:14:26.394Z,100421.16
2022-12-27T22:16:55.842Z,100429.72
2022-12-27T22:19:23.900Z,100419.34
2022-12-27T22:21:52.027Z,100422.41
2022-12-27T22:24:20.482Z,100418.56
2022-12-27T22:26:50.296Z,100417.28
2022-12-27T22:29:21.794Z,100422.06
2022-12-27T22:31:49.945Z,100428.47
2022-12-27T22:34:18.360Z,100429.59
2022-12-27T22:36:46.506Z,100438.53
2022-12-27T22:39:14.537Z,100445.41
2022-12-27T22:41:42.716Z,100443.25
2022-12-27T22:44:13.585Z,100446.63
2022-12-27T22:47:24.637Z,100450.13
2022-12-27T22:49:32.046Z,100444.38
2022-12-27T22:52:00.144Z,100440.72
2022-12-27T22:55:05.211Z,100449.53
2022-12-27T22:57:16.541Z,100458.94
2022-12-27T22:59:44.648Z,100452.38
2022-12-27T23:02:14.262Z,100462.44
2022-12-27T23:04:42.683Z,100463.56
2022-12-27T23:07:10.781Z,100476.00
2022-12-27T23:09:43.152Z,100468.84
2022-12-27T23:12:12.026Z,100488.00
2022-12-27T23:14:40.388Z,100486.06
2022-12-27T23:17:08.508Z,100479.84
2022-12-27T23:19:37.966Z,100486.19
2022-12-27T23:22:06.752Z,100483.81
2022-12-27T23:24:35.202Z,100482.09
2022-12-27T23:27:03.413Z,100484.34
2022-12-27T23:29:31.540Z,100491.03
2022-12-27T23:31:59.620Z,100490.72
2022-12-27T23:34:29.180Z,100491.22
2022-12-27T23:36:59.097Z,100485.59
2022-12-27T23:39:27.504Z,100482.09
2022-12-27T23:41:55.701Z,100483.72
2022-12-27T23:44:34.098Z,100476.53
2022-12-27T23:47:04.500Z,100483.91
2022-12-27T23:49:32.770Z,100479.03
2022-12-27T23:52:02.329Z,100481.44
2022-12-27T23:54:30.516Z,100474.75
2022-12-27T23:57:22.156Z,100480.63
2022-12-27T23:59:47.205Z,100487.66
